Time;durP1;ratioP1;P1;durP2;ratioP2;P2;SDS_P1;SDS_P2;PMS_P1;PMS_P2;Temp;Humidity;BMP_temperature;BMP_pressure;BME280_temperature;BME280_humidity;BME280_pressure;Samples;Min_cycle;Max_cycle;Signal;HPM_P1;HPM_P2
2021/01/24 00:00:03;;;;;;;1999.90;999.90;;;3.10;99.90;;;;;;5071793;28;20981;-69
2021/01/24 00:02:29;;;;;;;1999.90;999.90;;;3.00;99.90;;;;;;5072281;28;20167;-69
2021/01/24 00:04:54;;;;;;;1999.90;999.90;;;2.90;99.90;;;;;;5072090;28;20566;-69
2021/01/24 00:07:20;;;;;;;1999.90;999.90;;;2.70;99.90;;;;;;5072167;28;20185;-67
2021/01/24 00:09:46;;;;;;;1999.90;999.90;;;2.50;99.90;;;;;;5072035;28;20186;-67
2021/01/24 00:12:11;;;;;;;1999.90;999.90;;;2.30;99.90;;;;;;5071974;28;20217;-67
2021/01/24 00:14:37;;;;;;;1999.90;999.90;;;2.20;99.90;;;;;;5071822;28;20202;-67
2021/01/24 00:17:02;;;;;;;1999.90;999.90;;;2.10;99.90;;;;;;5071913;28;20155;-67
2021/01/24 00:19:28;;;;;;;1999.90;999.90;;;1.90;99.90;;;;;;5071520;28;20183;-67
2021/01/24 00:21:54;;;;;;;1999.90;999.90;;;1.80;99.90;;;;;;5071364;28;20171;-67
2021/01/24 00:24:19;;;;;;;1999.90;999.90;;;1.80;99.90;;;;;;5071850;28;20283;-67
2021/01/24 00:26:45;;;;;;;1999.90;999.90;;;1.70;99.90;;;;;;5071750;28;20587;-67
2021/01/24 00:29:10;;;;;;;1999.90;999.90;;;1.60;99.90;;;;;;5071291;28;20652;-67
2021/01/24 00:31:36;;;;;;;1999.90;999.90;;;1.50;99.90;;;;;;5071628;28;20224;-68
2021/01/24 00:34:03;;;;;;;1999.90;999.90;;;1.50;99.90;;;;;;5071536;28;20541;-68
2021/01/24 00:36:28;;;;;;;1999.90;999.90;;;1.50;99.90;;;;;;5071595;28;20170;-68
2021/01/24 00:38:54;;;;;;;1999.90;999.90;;;1.50;99.90;;;;;;5071229;28;20625;-68
2021/01/24 00:41:19;;;;;;;1999.90;999.90;;;1.50;99.90;;;;;;5071370;28;20179;-68
2021/01/24 00:43:45;;;;;;;1999.90;999.90;;;1.40;99.90;;;;;;5071356;28;20171;-68
2021/01/24 00:46:10;;;;;;;1999.90;999.90;;;1.40;99.90;;;;;;5071388;28;20166;-68
2021/01/24 00:48:39;;;;;;;1999.90;999.90;;;1.40;99.90;;;;;;5071102;28;20202;-69
2021/01/24 00:51:05;;;;;;;1999.90;999.90;;;1.40;99.90;;;;;;5071306;28;20191;-69
2021/01/24 00:53:31;;;;;;;1999.90;999.90;;;1.40;99.90;;;;;;5071106;28;20202;-69
2021/01/24 00:55:57;;;;;;;1999.90;999.90;;;1.40;99.90;;;;;;5071224;28;20174;-70
2021/01/24 00:58:23;;;;;;;1999.90;999.90;;;1.40;99.90;;;;;;5071783;28;20179;-71
2021/01/24 01:00:49;;;;;;;1999.90;999.90;;;1.40;99.90;;;;;;5071203;28;20260;-70
2021/01/24 01:03:15;;;;;;;1999.90;999.90;;;1.40;99.90;;;;;;5071254;28;20179;-71
2021/01/24 01:05:41;;;;;;;1999.90;999.90;;;1.30;99.90;;;;;;5071156;28;20242;-69
2021/01/24 01:08:07;;;;;;;1999.90;999.90;;;1.30;99.90;;;;;;5071078;28;20185;-70
2021/01/24 01:10:33;;;;;;;1999.90;999.90;;;1.30;99.90;;;;;;5071040;28;20420;-70
2021/01/24 01:12:59;;;;;;;1999.90;999.90;;;1.20;99.90;;;;;;5070974;28;20630;-70
2021/01/24 01:15:25;;;;;;;1999.90;999.90;;;1.20;99.90;;;;;;5070964;28;20159;-69
2021/01/24 01:17:51;;;;;;;1999.90;999.90;;;1.20;99.90;;;;;;5071064;28;20171;-70
2021/01/24 01:20:17;;;;;;;1999.90;999.90;;;1.20;99.90;;;;;;5070595;28;20425;-70
2021/01/24 01:22:43;;;;;;;1999.90;999.90;;;1.10;99.90;;;;;;5071197;28;20401;-69
2021/01/24 01:25:09;;;;;;;1999.90;999.90;;;1.10;99.90;;;;;;5070962;28;20401;-70
2021/01/24 01:27:34;;;;;;;1999.90;999.90;;;1.10;99.90;;;;;;5070705;28;20531;-70
2021/01/24 01:30:00;;;;;;;1999.90;999.90;;;1.00;99.90;;;;;;5070496;28;20482;-71
2021/01/24 01:32:25;;;;;;;1999.90;999.90;;;1.00;99.90;;;;;;5070858;28;20197;-71
2021/01/24 01:34:51;;;;;;;1999.90;999.90;;;1.00;99.90;;;;;;5070032;28;20237;-72
2021/01/24 01:37:17;;;;;;;1999.90;999.90;;;1.00;99.90;;;;;;5070784;28;20167;-72
2021/01/24 01:39:45;;;;;;;1999.90;999.90;;;1.00;99.90;;;;;;5070560;28;20248;-72
2021/01/24 01:42:13;;;;;;;1999.90;999.90;;;0.90;99.90;;;;;;5071017;28;20547;-72
2021/01/24 01:44:39;;;;;;;1999.90;999.90;;;0.90;99.90;;;;;;5071326;28;20183;-73
2021/01/24 01:47:04;;;;;;;1999.90;999.90;;;0.90;99.90;;;;;;5071004;28;20624;-73
2021/01/24 01:49:30;;;;;;;1999.90;999.90;;;0.90;99.90;;;;;;5070668;28;20209;-73
2021/01/24 01:51:56;;;;;;;1999.90;999.90;;;0.90;99.90;;;;;;5070615;28;20175;-73
2021/01/24 01:54:22;;;;;;;1999.90;999.90;;;0.80;99.90;;;;;;5070603;28;20282;-74
2021/01/24 01:56:47;;;;;;;1999.90;999.90;;;0.80;99.90;;;;;;5070557;28;20175;-73
2021/01/24 01:59:13;;;;;;;1999.90;999.90;;;0.80;99.90;;;;;;5070138;28;20194;-73
2021/01/24 02:02:07;;;;;;;1999.90;999.90;;;0.70;99.90;;;;;;5070591;28;20902;-73
2021/01/24 02:04:51;;;;;;;1999.90;999.90;;;0.70;99.90;;;;;;5070488;28;20692;-73
2021/01/24 02:07:23;;;;;;;1999.90;999.90;;;0.80;99.90;;;;;;5070524;28;20178;-73
2021/01/24 02:10:10;;;;;;;1999.90;999.90;;;0.80;99.90;;;;;;5070388;28;20285;-74
2021/01/24 02:13:00;;;;;;;1999.90;999.90;;;0.70;99.90;;;;;;5071258;28;20199;-74
2021/01/24 02:15:27;;;;;;;1999.90;999.90;;;0.70;99.90;;;;;;5071396;28;20182;-73
2021/01/24 02:17:59;;;;;;;1999.90;999.90;;;0.70;99.90;;;;;;5073950;28;20174;-74
2021/01/24 02:20:34;;;;;;;1999.90;999.90;;;0.70;99.90;;;;;;5073908;28;20273;-72
2021/01/24 02:23:01;;;;;;;1999.90;999.90;;;0.70;99.90;;;;;;5072747;28;20193;-72
2021/01/24 02:25:45;;;;;;;1999.90;999.90;;;0.70;99.90;;;;;;5072320;28;20258;-73
2021/01/24 02:28:25;;;;;;;1999.90;999.90;;;0.70;99.90;;;;;;5072806;28;20202;-71
2021/01/24 02:30:53;;;;;;;1999.90;999.90;;;0.70;99.90;;;;;;5073729;28;20187;-74
2021/01/24 02:33:22;;;;;;;1999.90;999.90;;;0.70;99.90;;;;;;5073151;28;20168;-75
2021/01/24 02:35:54;;;;;;;1999.90;999.90;;;0.70;99.90;;;;;;5072563;28;20167;-72
2021/01/24 02:38:21;;;;;;;1999.90;999.90;;;0.70;99.90;;;;;;5073494;28;20171;-73
2021/01/24 02:40:48;;;;;;;1999.90;999.90;;;0.70;99.90;;;;;;5073494;28;20205;-73
2021/01/24 02:43:15;;;;;;;1999.90;999.90;;;0.70;99.90;;;;;;5072656;28;20164;-74
2021/01/24 02:45:44;;;;;;;1999.90;999.90;;;0.70;99.90;;;;;;5074323;28;20547;-74
2021/01/24 02:48:11;;;;;;;1999.90;999.90;;;0.70;99.90;;;;;;5074132;28;20683;-73
2021/01/24 02:50:39;;;;;;;1999.90;999.90;;;0.70;99.90;;;;;;5073774;28;20226;-73
2021/01/24 02:53:05;;;;;;;1999.90;999.90;;;0.70;99.90;;;;;;5055884;28;20171;-73
2021/01/24 02:55:31;;;;;;;1999.90;999.90;;;0.70;99.90;;;;;;5073609;28;20171;-73
2021/01/24 02:57:57;;;;;;;1999.90;999.90;;;0.70;99.90;;;;;;5073606;28;20258;-72
2021/01/24 03:00:23;;;;;;;1999.90;999.90;;;0.70;99.90;;;;;;5073244;28;20302;-72
2021/01/24 03:02:50;;;;;;;1999.90;999.90;;;0.70;99.90;;;;;;5073393;28;20544;-72
2021/01/24 03:05:16;;;;;;;1999.90;999.90;;;0.70;99.90;;;;;;5073292;28;20672;-72
2021/01/24 03:07:43;;;;;;;1999.90;999.90;;;0.70;99.90;;;;;;5073615;28;20186;-73
2021/01/24 03:10:10;;;;;;;1999.90;999.90;;;0.70;99.90;;;;;;5073043;28;20429;-73
2021/01/24 03:12:40;;;;;;;1999.90;999.90;;;0.70;99.90;;;;;;5073268;28;20163;-73
2021/01/24 03:15:08;;;;;;;1999.90;999.90;;;0.70;99.90;;;;;;5073175;28;20210;-74
2021/01/24 03:17:37;;;;;;;1999.90;999.90;;;0.70;99.90;;;;;;5073164;28;20167;-73
2021/01/24 03:20:08;;;;;;;1999.90;999.90;;;0.70;99.90;;;;;;5072762;28;20183;-74
2021/01/24 03:22:35;;;;;;;1999.90;999.90;;;0.70;99.90;;;;;;5073047;28;20640;-73
2021/01/24 03:25:04;;;;;;;1999.90;999.90;;;0.70;99.90;;;;;;5073006;28;20268;-73
2021/01/24 03:27:30;;;;;;;1999.90;999.90;;;0.70;99.90;;;;;;5073402;28;20659;-72
2021/01/24 03:29:59;;;;;;;1999.90;999.90;;;0.70;99.90;;;;;;5072884;28;20199;-72
2021/01/24 03:32:25;;;;;;;1999.90;999.90;;;0.80;99.90;;;;;;5072960;28;20256;-72
2021/01/24 03:34:51;;;;;;;1999.90;999.90;;;0.80;99.90;;;;;;5072760;28;20190;-71
2021/01/24 03:37:16;;;;;;;1999.90;999.90;;;0.80;99.90;;;;;;5073525;28;20257;-70
2021/01/24 03:39:42;;;;;;;1999.90;999.90;;;0.80;99.90;;;;;;5073155;28;20187;-70
2021/01/24 03:42:08;;;;;;;1999.90;999.90;;;0.80;99.90;;;;;;5073160;28;20171;-70
2021/01/24 03:44:33;;;;;;;1999.90;999.90;;;0.80;99.90;;;;;;5072979;28;20178;-70
2021/01/24 03:46:59;;;;;;;1999.90;999.90;;;0.80;99.90;;;;;;5072685;28;20254;-71
2021/01/24 03:49:24;;;;;;;1999.90;999.90;;;0.90;99.90;;;;;;5072276;28;20195;-72
2021/01/24 03:51:50;;;;;;;1999.90;999.90;;;0.80;99.90;;;;;;5072571;28;20175;-70
2021/01/24 03:54:15;;;;;;;1999.90;999.90;;;0.80;99.90;;;;;;5072386;28;20199;-71
2021/01/24 03:56:41;;;;;;;1999.90;999.90;;;0.90;99.90;;;;;;5071554;28;20250;-73
2021/01/24 03:59:07;;;;;;;1999.90;999.90;;;0.90;99.90;;;;;;5071860;28;20171;-73
2021/01/24 04:01:34;;;;;;;1999.90;999.90;;;0.90;99.90;;;;;;5072312;28;20175;-74
2021/01/24 04:03:59;;;;;;;1999.90;999.90;;;1.00;99.90;;;;;;5072080;28;20209;-76
2021/01/24 04:06:25;;;;;;;1999.90;999.90;;;0.90;99.90;;;;;;5072151;28;20198;-73
2021/01/24 04:08:51;;;;;;;1999.90;999.90;;;0.90;99.90;;;;;;5053943;28;20171;-74
2021/01/24 04:11:17;;;;;;;1999.90;999.90;;;0.90;99.90;;;;;;5071974;28;20269;-73
2021/01/24 04:13:43;;;;;;;1999.90;999.90;;;0.90;99.90;;;;;;5071957;28;20878;-73
2021/01/24 04:16:13;;;;;;;1999.90;999.90;;;0.80;99.90;;;;;;5071901;28;20174;-74
2021/01/24 04:18:38;;;;;;;1999.90;999.90;;;0.90;99.90;;;;;;5071602;28;20191;-74
2021/01/24 04:21:05;;;;;;;1999.90;999.90;;;0.80;99.90;;;;;;5071923;28;20266;-74
2021/01/24 04:23:31;;;;;;;1999.90;999.90;;;0.80;99.90;;;;;;5071833;28;20440;-74
2021/01/24 04:25:57;;;;;;;1999.90;999.90;;;0.80;99.90;;;;;;5071903;28;20267;-74
2021/01/24 04:28:23;;;;;;;1999.90;999.90;;;0.80;99.90;;;;;;5071548;28;20203;-74
2021/01/24 04:30:49;;;;;;;1999.90;999.90;;;0.80;99.90;;;;;;5071537;28;20275;-71
2021/01/24 04:33:14;;;;;;;1999.90;999.90;;;0.80;99.90;;;;;;5071548;28;20163;-71
2021/01/24 04:35:40;;;;;;;1999.90;999.90;;;0.80;99.90;;;;;;5071631;28;20174;-71
2021/01/24 04:38:05;;;;;;;1999.90;999.90;;;0.80;99.90;;;;;;5071413;28;20166;-74
2021/01/24 04:40:31;;;;;;;1999.90;999.90;;;0.80;99.90;;;;;;5071413;28;20555;-71
2021/01/24 04:42:57;;;;;;;1999.90;999.90;;;0.80;99.90;;;;;;5071444;28;20163;-74
2021/01/24 04:45:23;;;;;;;1999.90;999.90;;;0.80;99.90;;;;;;5071421;28;20182;-75
2021/01/24 04:47:51;;;;;;;1999.90;999.90;;;0.80;99.90;;;;;;5071605;28;20259;-76
2021/01/24 04:50:18;;;;;;;1999.90;999.90;;;0.80;99.90;;;;;;5071336;28;20183;-76
2021/01/24 04:52:44;;;;;;;1999.90;999.90;;;0.80;99.90;;;;;;5073752;28;20178;-76
2021/01/24 04:55:11;;;;;;;1999.90;999.90;;;0.80;99.90;;;;;;5055117;28;20260;-75
2021/01/24 04:57:37;;;;;;;1999.90;999.90;;;0.80;99.90;;;;;;5074738;28;20177;-77
2021/01/24 05:00:05;;;;;;;1999.90;999.90;;;0.90;99.90;;;;;;5093507;22;20697;-70
2021/01/24 05:02:30;;;;;;;1999.90;999.90;;;0.80;99.90;;;;;;5091340;28;20415;-71
2021/01/24 05:04:56;;;;;;;1999.90;999.90;;;0.80;99.90;;;;;;5091525;28;20269;-71
2021/01/24 05:07:22;;;;;;;1999.90;999.90;;;0.90;99.90;;;;;;5091859;28;20678;-71
2021/01/24 05:09:47;;;;;;;1999.90;999.90;;;0.90;99.90;;;;;;5091282;28;20558;-71
2021/01/24 05:12:14;;;;;;;1999.90;999.90;;;0.90;99.90;;;;;;5091283;28;20538;-71
2021/01/24 05:14:40;;;;;;;1999.90;999.90;;;0.90;99.90;;;;;;5091077;28;20190;-71
2021/01/24 05:17:06;;;;;;;1999.90;999.90;;;0.90;99.90;;;;;;5091335;28;20185;-70
2021/01/24 05:19:34;;;;;;;1999.90;999.90;;;1.00;99.90;;;;;;5091039;28;20227;-69
2021/01/24 05:22:03;;;;;;;1999.90;999.90;;;1.00;99.90;;;;;;5091166;28;20167;-69
2021/01/24 05:24:29;;;;;;;1999.90;999.90;;;1.00;99.90;;;;;;5091054;28;20170;-69
2021/01/24 05:26:55;;;;;;;1999.90;999.90;;;1.00;99.90;;;;;;5091162;28;20244;-70
2021/01/24 05:29:27;;;;;;;1999.90;999.90;;;1.00;99.90;;;;;;5090709;28;20553;-69
2021/01/24 05:31:55;;;;;;;1999.90;999.90;;;1.10;99.90;;;;;;5091003;28;20166;-68
2021/01/24 05:34:25;;;;;;;1999.90;999.90;;;1.10;99.90;;;;;;5090940;28;20248;-68
2021/01/24 05:36:52;;;;;;;1999.90;999.90;;;1.10;99.90;;;;;;5090958;28;20178;-68
2021/01/24 05:39:18;;;;;;;1999.90;999.90;;;1.10;99.90;;;;;;5090699;28;20261;-68
2021/01/24 05:41:53;;;;;;;1999.90;999.90;;;1.10;99.90;;;;;;5090894;28;20189;-69
2021/01/24 05:44:20;;;;;;;1999.90;999.90;;;1.10;99.90;;;;;;5091087;28;20184;-70
2021/01/24 05:46:46;;;;;;;1999.90;999.90;;;1.10;99.90;;;;;;5090896;28;20299;-69
2021/01/24 05:49:14;;;;;;;1999.90;999.90;;;1.10;99.90;;;;;;5090864;28;20246;-68
2021/01/24 05:51:39;;;;;;;1999.90;999.90;;;1.10;99.90;;;;;;5090736;28;20182;-68
2021/01/24 05:54:06;;;;;;;1999.90;999.90;;;1.10;99.90;;;;;;5091006;28;20689;-68
2021/01/24 05:56:31;;;;;;;1999.90;999.90;;;1.10;99.90;;;;;;5090746;28;20418;-70
2021/01/24 05:58:59;;;;;;;1999.90;999.90;;;1.10;99.90;;;;;;5090792;28;20254;-70
2021/01/24 06:01:26;;;;;;;1999.90;999.90;;;1.10;99.90;;;;;;5090514;28;20436;-71
2021/01/24 06:03:56;;;;;;;1999.90;999.90;;;1.10;99.90;;;;;;5090618;28;20235;-71
2021/01/24 06:06:22;;;;;;;1999.90;999.90;;;1.10;99.90;;;;;;5090778;28;20177;-71
2021/01/24 06:08:48;;;;;;;1999.90;999.90;;;1.10;99.90;;;;;;5090955;28;20178;-71
2021/01/24 06:11:16;;;;;;;1999.90;999.90;;;1.10;99.90;;;;;;5090663;28;20232;-70
2021/01/24 06:13:46;;;;;;;1999.90;999.90;;;1.10;99.90;;;;;;5090520;28;20197;-69
2021/01/24 06:16:17;;;;;;;1999.90;999.90;;;1.10;99.90;;;;;;5090451;28;20266;-69
2021/01/24 06:18:52;;;;;;;1999.90;999.90;;;1.20;99.90;;;;;;5090411;28;20163;-69
2021/01/24 06:21:22;;;;;;;1999.90;999.90;;;1.20;99.90;;;;;;5093830;28;20600;-69
2021/01/24 06:24:10;;;;;;;1999.90;999.90;;;1.20;99.90;;;;;;5094623;28;20178;-69
2021/01/24 06:26:39;;;;;;;1999.90;999.90;;;1.20;99.90;;;;;;5088534;28;20266;-69
2021/01/24 06:29:06;;;;;;;1999.90;999.90;;;1.10;99.90;;;;;;5094077;28;20639;-70
2021/01/24 06:31:32;;;;;;;1999.90;999.90;;;1.10;99.90;;;;;;5094126;28;20186;-69
2021/01/24 06:34:05;;;;;;;1999.90;999.90;;;1.10;99.90;;;;;;5094038;28;20209;-69
2021/01/24 06:36:55;;;;;;;1999.90;999.90;;;1.10;99.90;;;;;;5094306;28;20166;-69
2021/01/24 06:39:30;;;;;;;1999.90;999.90;;;1.10;99.90;;;;;;5093152;28;20170;-69
2021/01/24 06:41:56;;;;;;;1999.90;999.90;;;1.10;99.90;;;;;;5094190;28;20553;-69
2021/01/24 06:44:38;;;;;;;1999.90;999.90;;;1.10;99.90;;;;;;5093973;28;20167;-69
2021/01/24 06:47:27;;;;;;;1999.90;999.90;;;1.10;99.90;;;;;;5094019;28;20171;-69
2021/01/24 06:49:53;;;;;;;1999.90;999.90;;;1.10;99.90;;;;;;5093569;28;20686;-69
2021/01/24 06:52:20;;;;;;;1999.90;999.90;;;1.10;99.90;;;;;;5093928;28;20181;-68
2021/01/24 06:54:47;;;;;;;1999.90;999.90;;;1.10;99.90;;;;;;5093733;28;20190;-68
2021/01/24 06:57:13;;;;;;;1999.90;999.90;;;1.10;99.90;;;;;;5094057;28;20178;-68
2021/01/24 06:59:39;;;;;;;1999.90;999.90;;;1.20;99.90;;;;;;5093239;28;20658;-68
2021/01/24 07:02:25;;;;;;;1999.90;999.90;;;1.10;99.90;;;;;;5093771;28;20162;-68
2021/01/24 07:05:24;;;;;;;1999.90;999.90;;;1.10;99.90;;;;;;5093625;28;20175;-68
2021/01/24 07:07:53;;;;;;;1999.90;999.90;;;1.20;99.90;;;;;;5070423;28;20216;-68
2021/01/24 07:10:37;;;;;;;1999.90;999.90;;;1.20;99.90;;;;;;5093333;28;20186;-69
2021/01/24 07:13:25;;;;;;;1999.90;999.90;;;1.30;99.90;;;;;;5093502;28;20166;-68
2021/01/24 07:15:58;;;;;;;1999.90;999.90;;;1.30;99.90;;;;;;5093220;28;20646;-68
2021/01/24 07:18:25;;;;;;;1999.90;999.90;;;1.40;99.90;;;;;;5093176;28;20182;-69
2021/01/24 07:20:52;;;;;;;1999.90;999.90;;;1.40;99.90;;;;;;5093332;28;20191;-70
2021/01/24 07:23:18;;;;;;;1999.90;999.90;;;1.40;99.90;;;;;;5093305;28;20174;-68
2021/01/24 07:25:45;;;;;;;1999.90;999.90;;;1.40;99.90;;;;;;5093262;28;20165;-68
2021/01/24 07:28:15;;;;;;;1999.90;999.90;;;1.40;99.90;;;;;;5092859;28;20789;-68
2021/01/24 07:30:41;;;;;;;1999.90;999.90;;;1.40;99.90;;;;;;5092398;28;20190;-68
2021/01/24 07:33:07;;;;;;;1999.90;999.90;;;1.40;99.90;;;;;;5092614;28;20185;-68
2021/01/24 07:35:36;;;;;;;1999.90;999.90;;;1.40;99.90;;;;;;5093014;28;20486;-68
2021/01/24 07:38:03;;;;;;;1999.90;999.90;;;1.50;99.90;;;;;;5093000;28;20163;-68
2021/01/24 07:40:30;;;;;;;1999.90;999.90;;;1.40;99.90;;;;;;5092662;28;20578;-68
2021/01/24 07:42:56;;;;;;;1999.90;999.90;;;1.40;99.90;;;;;;5093036;28;20178;-68
2021/01/24 07:45:23;;;;;;;1999.90;999.90;;;1.50;99.90;;;;;;5092872;28;20220;-68
2021/01/24 07:47:48;;;;;;;1999.90;999.90;;;1.50;99.90;;;;;;5093204;28;20190;-68
2021/01/24 07:50:14;;;;;;;1999.90;999.90;;;1.40;99.90;;;;;;5092764;28;20567;-68
2021/01/24 07:52:40;;;;;;;1999.90;999.90;;;1.50;99.90;;;;;;5092713;28;20174;-68
2021/01/24 07:55:08;;;;;;;1999.90;999.90;;;1.50;99.90;;;;;;5092535;28;20192;-69
2021/01/24 07:57:34;;;;;;;1999.90;999.90;;;1.50;99.90;;;;;;5092476;28;20216;-69
2021/01/24 08:00:00;;;;;;;1999.90;999.90;;;1.50;99.90;;;;;;5092105;28;20607;-72
2021/01/24 08:02:27;;;;;;;1999.90;999.90;;;1.50;99.90;;;;;;5092538;28;20158;-71
2021/01/24 08:04:52;;;;;;;1999.90;999.90;;;1.60;99.90;;;;;;5092441;28;20546;-72
2021/01/24 08:07:18;;;;;;;1999.90;999.90;;;1.60;99.90;;;;;;5092424;28;20184;-72
2021/01/24 08:09:44;;;;;;;1999.90;999.90;;;1.60;99.90;;;;;;5092054;28;20281;-71
2021/01/24 08:12:13;;;;;;;1999.90;999.90;;;1.60;99.90;;;;;;5092286;28;20154;-72
2021/01/24 08:14:40;;;;;;;1999.90;999.90;;;1.60;99.90;;;;;;5092007;28;20202;-72
2021/01/24 08:17:15;;;;;;;1999.90;999.90;;;1.60;99.90;;;;;;5092182;28;20249;-72
2021/01/24 08:19:42;;;;;;;1999.90;999.90;;;1.70;99.90;;;;;;5091823;28;20242;-72
2021/01/24 08:22:08;;;;;;;1999.90;999.90;;;1.60;99.90;;;;;;5092052;28;20171;-72
2021/01/24 08:24:34;;;;;;;1999.90;999.90;;;1.70;99.90;;;;;;5092044;28;20170;-72
2021/01/24 08:27:00;;;;;;;1999.90;999.90;;;1.70;99.90;;;;;;5092181;28;20643;-72
2021/01/24 08:29:34;;;;;;;1999.90;999.90;;;1.70;99.90;;;;;;5091537;28;20166;-72
2021/01/24 08:32:01;;;;;;;1999.90;999.90;;;1.70;99.90;;;;;;5092462;28;20303;-72
2021/01/24 08:34:27;;;;;;;1999.90;999.90;;;1.70;99.90;;;;;;5091783;28;20234;-72
2021/01/24 08:36:53;;;;;;;1999.90;999.90;;;1.70;99.90;;;;;;5091878;28;20179;-72
2021/01/24 08:39:23;;;;;;;1999.90;999.90;;;1.70;99.90;;;;;;5092072;28;20174;-72
2021/01/24 08:41:51;;;;;;;1999.90;999.90;;;1.80;99.90;;;;;;5091774;28;20249;-71
2021/01/24 08:44:17;;;;;;;1999.90;999.90;;;1.70;99.90;;;;;;5091471;28;20311;-72
2021/01/24 08:46:44;;;;;;;1999.90;999.90;;;1.80;99.90;;;;;;5091750;28;20250;-71
2021/01/24 08:49:13;;;;;;;1999.90;999.90;;;1.80;99.90;;;;;;5091363;28;20162;-71
2021/01/24 08:51:48;;;;;;;1999.90;999.90;;;1.80;99.90;;;;;;5091490;28;20209;-71
2021/01/24 08:54:20;;;;;;;1999.90;999.90;;;1.90;99.90;;;;;;5091430;28;20204;-71
2021/01/24 08:56:46;;;;;;;1999.90;999.90;;;1.90;99.90;;;;;;5091468;28;20162;-71
2021/01/24 08:59:23;;;;;;;1999.90;999.90;;;2.00;99.90;;;;;;5091216;28;20173;-69
2021/01/24 09:01:53;;;;;;;1999.90;999.90;;;2.00;99.90;;;;;;5091318;28;20466;-68
2021/01/24 09:04:26;;;;;;;1999.90;999.90;;;2.10;99.90;;;;;;5091824;28;20178;-67
2021/01/24 09:07:05;;;;;;;1999.90;999.90;;;2.10;99.90;;;;;;5091777;28;20254;-68
2021/01/24 09:09:31;;;;;;;1999.90;999.90;;;2.10;99.90;;;;;;5091055;28;20174;-68
2021/01/24 09:11:58;;;;;;;1999.90;999.90;;;2.10;99.90;;;;;;5091196;28;20290;-67
2021/01/24 09:14:24;;;;;;;1999.90;999.90;;;2.10;99.90;;;;;;5091104;28;20194;-68
2021/01/24 09:17:17;;;;;;;1999.90;999.90;;;2.00;99.90;;;;;;5091194;28;20531;-67
2021/01/24 09:19:44;;;;;;;1999.90;999.90;;;2.00;99.90;;;;;;5088924;28;20836;-68
2021/01/24 09:22:15;;;;;;;1999.90;999.90;;;2.00;99.90;;;;;;5091159;28;20231;-68
2021/01/24 09:24:41;;;;;;;1999.90;999.90;;;2.00;99.90;;;;;;5091040;28;20220;-67
2021/01/24 09:27:09;;;;;;;1999.90;999.90;;;2.00;99.90;;;;;;5091056;28;20539;-68
2021/01/24 09:29:36;;;;;;;1999.90;999.90;;;1.90;99.90;;;;;;5090631;28;20189;-67
2021/01/24 09:32:03;;;;;;;1999.90;999.90;;;1.90;99.90;;;;;;5091012;28;20216;-68
2021/01/24 09:34:29;;;;;;;1999.90;999.90;;;1.80;99.90;;;;;;5090917;28;20736;-67
2021/01/24 09:36:55;;;;;;;1999.90;999.90;;;1.90;99.90;;;;;;5091064;28;20174;-68
2021/01/24 09:39:21;;;;;;;1999.90;999.90;;;1.90;99.90;;;;;;5090607;28;20989;-67
2021/01/24 09:41:46;;;;;;;1999.90;999.90;;;2.00;99.90;;;;;;5090834;28;20400;-68
2021/01/24 09:44:12;;;;;;;1999.90;999.90;;;1.90;99.90;;;;;;5090892;28;20170;-67
2021/01/24 09:46:38;;;;;;;1999.90;999.90;;;2.00;99.90;;;;;;5090859;28;20169;-67
2021/01/24 09:49:04;;;;;;;1999.90;999.90;;;2.00;99.90;;;;;;5090613;28;20900;-67
2021/01/24 09:51:30;;;;;;;1999.90;999.90;;;2.00;99.90;;;;;;5090757;28;20201;-67
2021/01/24 09:53:58;;;;;;;1999.90;999.90;;;2.00;99.90;;;;;;5090668;28;20493;-67
2021/01/24 09:56:25;;;;;;;1999.90;999.90;;;2.00;99.90;;;;;;5094700;28;20400;-67
2021/01/24 09:58:52;;;;;;;1999.90;999.90;;;2.10;99.90;;;;;;5094639;28;20194;-68
2021/01/24 10:01:19;;;;;;;1999.90;999.90;;;2.10;99.90;;;;;;5094672;28;20209;-66
2021/01/24 10:03:46;;;;;;;1999.90;999.90;;;2.20;99.90;;;;;;5094711;28;20205;-68
2021/01/24 10:06:11;;;;;;;1999.90;999.90;;;2.10;99.90;;;;;;5094733;28;20185;-68
2021/01/24 10:08:37;;;;;;;1999.90;999.90;;;2.20;99.90;;;;;;5094684;28;20174;-68
2021/01/24 10:11:03;;;;;;;1999.90;999.90;;;2.20;99.90;;;;;;5094541;28;20652;-67
2021/01/24 10:13:29;;;;;;;1999.90;999.90;;;2.20;99.90;;;;;;5094654;28;20167;-67
2021/01/24 10:15:54;;;;;;;1999.90;999.90;;;2.30;99.90;;;;;;5094640;28;20163;-66
2021/01/24 10:18:21;;;;;;;1999.90;999.90;;;2.30;99.90;;;;;;5094448;28;20182;-69
2021/01/24 10:20:46;;;;;;;1999.90;999.90;;;2.20;99.90;;;;;;5094290;28;20201;-68
2021/01/24 10:23:12;;;;;;;1999.90;999.90;;;2.20;99.90;;;;;;5094375;28;20170;-67
2021/01/24 10:25:38;;;;;;;1999.90;999.90;;;2.20;99.90;;;;;;5094639;28;20652;-67
2021/01/24 10:28:05;;;;;;;1999.90;999.90;;;2.20;99.90;;;;;;5094337;28;20181;-68
2021/01/24 10:30:30;;;;;;;1999.90;999.90;;;2.30;99.90;;;;;;5094342;28;20206;-67
2021/01/24 10:32:56;;;;;;;1999.90;999.90;;;2.30;99.90;;;;;;5094311;28;20817;-68
2021/01/24 10:35:23;;;;;;;1999.90;999.90;;;2.40;99.90;;;;;;5094180;28;20236;-68
2021/01/24 10:37:48;;;;;;;1999.90;999.90;;;2.50;99.90;;;;;;5094127;28;20166;-68
2021/01/24 10:40:14;;;;;;;1999.90;999.90;;;2.60;99.90;;;;;;5093758;28;20240;-67
2021/01/24 10:42:40;;;;;;;1999.90;999.90;;;2.70;99.90;;;;;;5093866;28;20215;-67
2021/01/24 10:45:07;;;;;;;1999.90;999.90;;;2.70;99.90;;;;;;5072940;28;20640;-69
2021/01/24 10:47:33;;;;;;;1999.90;999.90;;;2.70;99.90;;;;;;5073051;28;20562;-67
2021/01/24 10:49:59;;;;;;;1999.90;999.90;;;2.70;99.90;;;;;;5072316;28;20248;-69
2021/01/24 10:52:25;;;;;;;1999.90;999.90;;;2.70;99.90;;;;;;5072742;28;20191;-69
2021/01/24 10:54:51;;;;;;;1999.90;999.90;;;2.80;99.90;;;;;;5072746;28;20456;-69
2021/01/24 10:57:16;;;;;;;1999.90;999.90;;;2.80;99.90;;;;;;5081743;28;20254;-69
2021/01/24 10:59:45;;;;;;;1999.90;999.90;;;2.90;99.90;;;;;;5086454;28;20227;-68
2021/01/24 11:02:11;;;;;;;1999.90;999.90;;;3.00;99.90;;;;;;5092785;28;20386;-67
2021/01/24 11:04:36;;;;;;;1999.90;999.90;;;3.00;99.90;;;;;;5091482;28;20265;-67
2021/01/24 11:07:03;;;;;;;1999.90;999.90;;;3.10;99.90;;;;;;5092426;28;20411;-66
2021/01/24 11:09:29;;;;;;;1999.90;999.90;;;3.10;99.90;;;;;;5091288;28;20209;-67
2021/01/24 11:11:55;;;;;;;1999.90;999.90;;;3.10;99.90;;;;;;5092096;28;20682;-66
2021/01/24 11:14:21;;;;;;;1999.90;999.90;;;3.20;99.90;;;;;;5091371;28;20481;-68
2021/01/24 11:16:47;;;;;;;1999.90;999.90;;;3.30;99.90;;;;;;5091674;28;20500;-67
2021/01/24 11:19:12;;;;;;;1999.90;999.90;;;3.30;99.90;;;;;;5091240;28;20661;-66
2021/01/24 11:21:38;;;;;;;1999.90;999.90;;;3.30;99.90;;;;;;5092227;28;20282;-67
2021/01/24 11:24:04;;;;;;;1999.90;999.90;;;3.20;99.90;;;;;;5092860;28;20181;-67
2021/01/24 11:26:30;;;;;;;1999.90;999.90;;;3.20;99.90;;;;;;5092846;28;20193;-67
2021/01/24 11:28:55;;;;;;;1999.90;999.90;;;3.20;99.90;;;;;;5092311;28;20268;-68
2021/01/24 11:31:21;;;;;;;1999.90;999.90;;;3.30;99.90;;;;;;5092209;28;20229;-67
2021/01/24 11:33:48;;;;;;;1999.90;999.90;;;3.30;99.90;;;;;;5092492;28;20190;-67
2021/01/24 11:36:14;;;;;;;1999.90;999.90;;;3.40;99.90;;;;;;5092552;28;20177;-67
2021/01/24 11:38:40;;;;;;;1999.90;999.90;;;3.50;99.90;;;;;;5092186;28;20167;-67
2021/01/24 11:41:05;;;;;;;1999.90;999.90;;;3.50;99.90;;;;;;5092564;28;20204;-68
2021/01/24 11:43:31;;;;;;;1999.90;999.90;;;3.60;99.90;;;;;;5092555;28;20411;-67
2021/01/24 11:45:58;;;;;;;1999.90;999.90;;;3.70;99.90;;;;;;5092537;28;20170;-67
2021/01/24 11:48:23;;;;;;;1999.90;999.90;;;3.80;99.90;;;;;;5092164;28;20171;-68
2021/01/24 11:50:49;;;;;;;1999.90;999.90;;;3.90;99.90;;;;;;5091931;28;20284;-67
2021/01/24 11:53:16;;;;;;;1999.90;999.90;;;4.00;99.90;;;;;;5092106;28;20280;-67
2021/01/24 11:55:43;;;;;;;1999.90;999.90;;;4.10;99.90;;;;;;5092497;28;20202;-67
2021/01/24 11:58:08;;;;;;;1999.90;999.90;;;4.20;99.90;;;;;;5091822;28;20162;-67
2021/01/24 12:00:34;;;;;;;1999.90;999.90;;;4.30;99.90;;;;;;5092007;28;20701;-67
2021/01/24 12:03:00;;;;;;;1999.90;999.90;;;4.30;99.90;;;;;;5092143;28;20538;-68
2021/01/24 12:05:26;;;;;;;1999.90;999.90;;;4.20;99.90;;;;;;5092053;28;20175;-68
2021/01/24 12:07:51;;;;;;;1999.90;999.90;;;4.20;99.90;;;;;;5092035;28;20507;-68
2021/01/24 12:10:17;;;;;;;1999.90;999.90;;;4.90;99.90;;;;;;5091345;28;20595;-68